Архив погоды в Грозном

Метеограмма Грозный
Четверг, 16 Августа
Время местн. Темп Ветер Видим Явления Облачность нижн/средн/верх Атм. давл. Влжн Точка росы ВНГО R Сост. почвы Tg s
Напр Скр Прв ур.ст ур.м изм
00:00 +18.3° В 1 - 10 км - ясно 739 762 -0.4 89% +16.5° более 2.5 км - - - -
Среда, 15 Августа
Время местн. Темп Ветер Видим Явления Облачность нижн/средн/верх Атм. давл. Влжн Точка росы ВНГО R Сост. почвы Tg s
Напр Скр Прв ур.ст ур.м изм
21:00 +21.5° В 3 - 10 км - ясно 739 762 +0.5 62% +14° более 2.5 км - - - -
18:00 +26.3° В 3 - 20 км - ясно 739 761 +0.2 48% +14.3° более 2.5 км - - - -
15:00 +28.3° В 3 - 20 км - ясно 739 761 -0.7 37% +12.4° более 2.5 км - - - -
12:00 +28° В 3 - 20 км - переменная облачность 739 761 -0.1 43% +14.4° - - - - -
09:00 +21.7° Ю,Ю-З 1 - 20 км - облачно с прояснениями 740 762 +0.3 69% +15.7° 1.5 км - - - -
06:00 +16.6° В 1 - 20 км - переменная облачность 740 762 +0.4 94% +15.6° - - Сухая (без трещин) - -
03:00 +17° В 1 - 10 км - переменная облачность 739 762 +0.2 90% +15.3° - - - - -
00:00 +18.8° В 1 - 10 км - переменная облачность 739 762 -0.3 83% +15.8° - - - - -
Вторник, 14 Августа
Время местн. Темп Ветер Видим Явления Облачность нижн/средн/верх Атм. давл. Влжн Точка росы ВНГО R Сост. почвы Tg s
Напр Скр Прв ур.ст ур.м изм
21:00 +19.2° В 1 - 10 км - ясно 739 762 +0.8 80% +15.7° более 2.5 км - - - -
18:00 +25.3° В,Ю-В 2 - 20 км - ясно 739 761 +0.1 37% +9.5° более 2.5 км - - - -
15:00 +29.5° Ю-В 2 - 20 км - переменная облачность 739 761 -0.8 36% +12.8° - - - - -
12:00 +28.2° З 2 - 20 км - ясно 739 761 -0.7 33% +10.6° более 2.5 км - - - -
09:00 +23.4° штиль 0 - 20 км - ясно 740 762 +0.1 66% +16.6° более 2.5 км - - - -
06:00 +16.5° штиль 0 - 20 км - ясно 740 763 +0.5 91% +15.1° более 2.5 км - Влажная (без луж) - -
03:00 +16.2° штиль 0 - 10 км - ясно 740 762 +0.2 90% +14.5° более 2.5 км - - - -
00:00 +18.5° штиль 0 - 10 км - ясно 739 762 +0.1 83% +15.6° более 2.5 км - - - -
Понедельник, 13 Августа
Время местн. Темп Ветер Видим Явления Облачность нижн/средн/верх Атм. давл. Влжн Точка росы ВНГО R Сост. почвы Tg s
Напр Скр Прв ур.ст ур.м изм
21:00 +19.6° Ю 2 - 10 км - ясно 739 762 +0.7 83% +16.6° более 2.5 км - - - -
18:00 +20.8° Ю-З 2 - 20 км - облачно с прояснениями 739 761 0 78% +16.9° 1.5 км - - - -
15:00 +20° Ю 1 - 20 км облака развиваются {ливневые осадки} облачно 739 761 -0.2 75% +15.5° 1.5 км - - - -
12:00 +22° З 1 - 20 км - переменная облачность 739 761 -0.4 71% +16.6° - - - - -
09:00 +20.8° З,С-З 2 - 20 км - преимущественно облачно 739 762 +0.4 77% +16.7° 1.5 км - - - -
06:00 +16° штиль 0 - 20 км - преимущественно облачно 739 761 +0.6 93% +14.8° 1.5 км - Влажная (без луж) - -
03:00 +15.8° В 1 - 10 км - ясно 738 761 -0.2 96% +15.1° более 2.5 км - - - -
00:00 +17.8° штиль 0 - 10 км - ясно 738 761 -0.7 93% +16.6° более 2.5 км - - - -
Воскресенье, 12 Августа
Время местн. Темп Ветер Видим Явления Облачность нижн/средн/верх Атм. давл. Влжн Точка росы ВНГО R Сост. почвы Tg s
Напр Скр Прв ур.ст ур.м изм
21:00 +19.5° штиль 0 - 10 км - облачно 739 762 +0.8 88% +17.4° 1 км - - - -